createdAt,value
2023-04-18T00:00:38.768Z,8.03
2023-04-18T00:03:05.652Z,7.96
2023-04-18T00:05:32.645Z,7.87
2023-04-18T00:07:59.382Z,7.86
2023-04-18T00:10:26.146Z,7.78
2023-04-18T00:12:52.798Z,7.77
2023-04-18T00:15:19.768Z,7.74
2023-04-18T00:17:47.905Z,7.71
2023-04-18T00:20:14.650Z,7.73
2023-04-18T00:22:41.869Z,7.61
2023-04-18T00:25:08.957Z,7.66
2023-04-18T00:27:35.771Z,7.67
2023-04-18T00:30:02.823Z,7.67
2023-04-18T00:32:29.691Z,7.63
2023-04-18T00:35:00.589Z,7.66
2023-04-18T00:37:27.417Z,7.56
2023-04-18T00:39:54.233Z,7.62
2023-04-18T00:42:21.228Z,7.60
2023-04-18T00:44:48.536Z,7.41
2023-04-18T00:47:16.152Z,7.39
2023-04-18T00:49:42.992Z,7.39
2023-04-18T00:52:11.832Z,7.34
2023-04-18T00:54:39.140Z,7.26
2023-04-18T00:57:06.057Z,7.12
2023-04-18T00:59:34.322Z,7.16
2023-04-18T01:02:01.832Z,7.17
2023-04-18T01:04:28.779Z,7.25
2023-04-18T01:06:55.735Z,7.25
2023-04-18T01:09:24.907Z,7.29
2023-04-18T01:11:52.664Z,7.23
2023-04-18T01:14:20.368Z,7.17
2023-04-18T01:16:47.650Z,7.05
2023-04-18T01:19:15.284Z,6.94
2023-04-18T01:21:42.020Z,6.95
2023-04-18T01:24:12.039Z,6.98
2023-04-18T01:26:43.356Z,7.14
2023-04-18T01:29:10.913Z,7.20
2023-04-18T01:31:39.243Z,7.21
2023-04-18T01:34:07.728Z,7.18
2023-04-18T01:36:36.040Z,7.18
2023-04-18T01:39:03.080Z,7.12
2023-04-18T01:41:31.460Z,6.99
2023-04-18T01:43:58.384Z,7.06
2023-04-18T01:46:26.491Z,7.26
2023-04-18T01:48:54.072Z,7.39
2023-04-18T01:51:21.522Z,7.43
2023-04-18T01:53:48.323Z,7.35
2023-04-18T01:56:15.262Z,7.25
2023-04-18T01:58:43.809Z,7.20
2023-04-18T02:01:12.630Z,7.21
2023-04-18T02:03:39.659Z,7.19
2023-04-18T02:06:07.077Z,7.10
2023-04-18T02:08:34.003Z,7.04
2023-04-18T02:11:02.630Z,6.94
2023-04-18T02:13:29.905Z,6.90
2023-04-18T02:15:59.085Z,6.93
2023-04-18T02:18:27.006Z,6.87
2023-04-18T02:20:53.827Z,6.84
2023-04-18T02:23:22.618Z,6.94
2023-04-18T02:25:49.573Z,6.96
2023-04-18T02:28:17.777Z,6.93
2023-04-18T02:30:44.631Z,6.94
2023-04-18T02:33:12.684Z,6.94
2023-04-18T02:35:40.626Z,6.97
2023-04-18T02:38:08.887Z,6.93
2023-04-18T02:40:35.613Z,6.89
2023-04-18T02:43:02.354Z,6.88
2023-04-18T02:45:29.382Z,6.84
2023-04-18T02:47:59.391Z,6.76
2023-04-18T02:50:27.503Z,6.72
2023-04-18T02:52:55.780Z,6.72
2023-04-18T02:55:26.154Z,6.70
2023-04-18T02:57:55.858Z,6.72
2023-04-18T03:00:53.922Z,6.79
2023-04-18T03:03:50.022Z,6.67
2023-04-18T03:06:35.688Z,6.76
2023-04-18T03:09:03.363Z,6.70
2023-04-18T03:11:32.500Z,6.67
2023-04-18T03:13:59.399Z,6.67
2023-04-18T03:16:32.319Z,6.66
2023-04-18T03:18:59.532Z,6.64
2023-04-18T03:21:27.504Z,6.71
2023-04-18T03:23:55.704Z,6.63
2023-04-18T03:26:22.807Z,6.70
2023-04-18T03:28:51.853Z,6.75
2023-04-18T03:31:18.939Z,6.76
2023-04-18T03:33:46.052Z,6.76
2023-04-18T03:36:13.369Z,6.72
2023-04-18T03:38:41.601Z,6.69
2023-04-18T03:41:10.527Z,6.68
2023-04-18T03:43:38.422Z,6.75
2023-04-18T03:46:05.494Z,6.69
2023-04-18T03:48:32.980Z,6.72
2023-04-18T03:51:01.763Z,6.44
2023-04-18T03:53:30.607Z,6.63
2023-04-18T03:55:57.521Z,6.64
2023-04-18T03:58:37.199Z,6.57
2023-04-18T04:01:04.180Z,6.58
2023-04-18T04:03:31.260Z,6.52
2023-04-18T04:05:58.170Z,6.54
2023-04-18T04:08:27.012Z,6.58
2023-04-18T04:10:54.989Z,6.52
2023-04-18T04:13:23.684Z,6.47
2023-04-18T04:15:52.679Z,6.48
2023-04-18T04:18:19.902Z,6.44
2023-04-18T04:20:48.142Z,6.43
2023-04-18T04:23:28.281Z,6.36
2023-04-18T04:25:55.789Z,6.32
2023-04-18T04:28:42.848Z,6.38
2023-04-18T04:31:11.750Z,6.35
2023-04-18T04:33:39.803Z,6.32
2023-04-18T04:36:13.742Z,6.38
2023-04-18T04:38:41.507Z,6.36
2023-04-18T04:41:08.562Z,6.34
2023-04-18T04:43:36.312Z,6.36
2023-04-18T04:46:03.770Z,6.41
2023-04-18T04:48:31.933Z,6.45
2023-04-18T04:51:01.085Z,6.50
2023-04-18T04:53:29.513Z,6.48
2023-04-18T04:55:57.463Z,6.49
2023-04-18T04:58:24.381Z,6.54
2023-04-18T05:01:14.511Z,6.52
2023-04-18T05:03:42.886Z,6.50
2023-04-18T05:06:09.868Z,6.57
2023-04-18T05:08:36.689Z,6.62
2023-04-18T05:11:03.810Z,6.66
2023-04-18T05:13:30.840Z,6.68
2023-04-18T05:16:00.202Z,6.65
2023-04-18T05:18:27.004Z,6.63
2023-04-18T05:20:55.124Z,6.58
2023-04-18T05:23:22.235Z,6.65
2023-04-18T05:28:50.453Z,6.71
2023-04-18T05:31:17.610Z,6.78
2023-04-18T05:33:45.209Z,6.74
2023-04-18T05:36:14.365Z,6.71
2023-04-18T05:38:41.380Z,6.71
2023-04-18T05:41:08.090Z,6.69
2023-04-18T05:43:34.883Z,6.70
2023-04-18T05:46:02.700Z,6.69
2023-04-18T05:48:29.436Z,6.90
2023-04-18T05:50:56.182Z,6.93
2023-04-18T05:53:24.364Z,7.01
2023-04-18T05:55:51.165Z,7.04
2023-04-18T05:58:17.856Z,7.10
2023-04-18T06:00:44.826Z,7.16
2023-04-18T06:03:11.973Z,7.20
2023-04-18T06:05:38.930Z,7.22
2023-04-18T06:08:05.780Z,7.27
2023-04-18T06:10:34.011Z,7.29
2023-04-18T06:13:00.920Z,7.33
2023-04-18T06:15:27.647Z,7.38
2023-04-18T06:17:54.467Z,7.43
2023-04-18T06:20:21.388Z,7.51
2023-04-18T06:22:48.097Z,7.66
2023-04-18T06:25:15.059Z,7.81
2023-04-18T06:27:43.194Z,8.00
2023-04-18T06:30:10.930Z,8.10
2023-04-18T06:32:38.775Z,8.19
2023-04-18T06:35:08.289Z,8.37
2023-04-18T06:37:35.058Z,8.30
2023-04-18T06:40:01.890Z,7.99
2023-04-18T06:42:28.660Z,7.84
2023-04-18T06:44:56.862Z,7.75
2023-04-18T06:47:24.014Z,7.78
2023-04-18T06:49:50.902Z,7.79
2023-04-18T06:52:17.685Z,7.85
2023-04-18T06:54:44.553Z,7.94
2023-04-18T06:57:11.434Z,8.01
2023-04-18T06:59:39.714Z,7.89
2023-04-18T07:02:08.495Z,7.86
2023-04-18T07:04:35.289Z,7.94
2023-04-18T07:07:02.612Z,8.06
2023-04-18T07:09:29.500Z,8.08
2023-04-18T07:11:56.415Z,8.06
2023-04-18T07:14:24.486Z,7.98
2023-04-18T07:16:51.651Z,8.04
2023-04-18T07:19:19.875Z,8.08
2023-04-18T07:21:46.891Z,8.02
2023-04-18T07:24:16.485Z,8.00
2023-04-18T07:26:43.264Z,8.02
2023-04-18T07:29:09.997Z,7.95
2023-04-18T07:31:36.786Z,7.96
2023-04-18T07:34:03.800Z,8.05
2023-04-18T07:36:32.192Z,8.04
2023-04-18T07:39:00.975Z,8.17
2023-04-18T07:41:27.941Z,8.32
2023-04-18T07:43:55.525Z,8.31
2023-04-18T07:46:22.473Z,8.33
2023-04-18T07:48:49.476Z,8.43
2023-04-18T07:51:16.773Z,8.42
2023-04-18T07:53:44.892Z,8.57
2023-04-18T07:56:12.109Z,8.56
2023-04-18T07:58:39.008Z,8.81
2023-04-18T08:01:05.884Z,8.78
2023-04-18T08:03:34.060Z,8.80
2023-04-18T08:06:01.193Z,9.00
2023-04-18T08:08:28.366Z,8.98
2023-04-18T08:10:56.801Z,9.15
2023-04-18T08:13:23.509Z,9.35
2023-04-18T08:15:50.482Z,9.46
2023-04-18T08:18:18.957Z,9.37
2023-04-18T08:20:46.107Z,9.32
2023-04-18T08:23:13.381Z,9.30
2023-04-18T08:25:40.490Z,9.36
2023-04-18T08:28:08.736Z,9.18
2023-04-18T08:30:35.589Z,9.28
2023-04-18T08:33:02.412Z,9.26
2023-04-18T08:35:29.270Z,9.56
2023-04-18T08:37:56.062Z,9.60
2023-04-18T08:40:23.102Z,10.05
2023-04-18T08:42:52.996Z,10.23
2023-04-18T08:45:21.202Z,10.29
2023-04-18T08:47:48.115Z,10.37
2023-04-18T08:50:14.931Z,10.56
2023-04-18T08:52:45.271Z,10.57
2023-04-18T08:55:12.053Z,11.17
2023-04-18T08:57:38.866Z,12.05
2023-04-18T09:00:07.264Z,12.31
2023-04-18T09:02:41.184Z,11.82
2023-04-18T09:05:13.566Z,11.69
2023-04-18T09:07:41.398Z,11.20
2023-04-18T09:10:08.800Z,11.12
2023-04-18T09:12:42.314Z,10.89
2023-04-18T09:15:11.423Z,10.96
2023-04-18T09:17:41.088Z,11.33
2023-04-18T09:20:10.444Z,11.64
2023-04-18T09:22:45.708Z,12.18
2023-04-18T09:25:24.378Z,12.51
2023-04-18T09:27:51.167Z,13.15
2023-04-18T09:30:30.219Z,12.53
2023-04-18T09:33:00.272Z,12.38
2023-04-18T09:35:27.666Z,13.10
2023-04-18T09:37:54.855Z,12.82
2023-04-18T09:40:22.664Z,12.93
2023-04-18T09:42:51.695Z,13.57
2023-04-18T09:45:18.582Z,13.71
2023-04-18T09:47:45.452Z,13.00
2023-04-18T09:50:13.684Z,12.69
2023-04-18T09:52:42.108Z,13.21
2023-04-18T09:55:11.237Z,13.20
2023-04-18T09:57:39.412Z,13.65
2023-04-18T10:00:09.294Z,13.45
2023-04-18T10:02:47.306Z,13.70
2023-04-18T10:05:17.617Z,13.86
2023-04-18T10:07:47.138Z,13.41
2023-04-18T10:10:14.480Z,13.36
2023-04-18T10:12:41.950Z,13.25
2023-04-18T10:15:10.485Z,13.19
2023-04-18T10:17:56.126Z,13.09
2023-04-18T10:20:30.375Z,13.42
2023-04-18T10:22:58.664Z,12.80
2023-04-18T10:25:50.770Z,13.56
2023-04-18T10:28:17.990Z,13.96
2023-04-18T10:31:00.857Z,14.09
2023-04-18T10:33:32.123Z,13.72
2023-04-18T10:36:03.812Z,13.54
2023-04-18T10:38:31.731Z,13.52
2023-04-18T10:41:16.123Z,13.73
2023-04-18T10:44:12.311Z,13.93
2023-04-18T10:46:41.435Z,14.33
2023-04-18T10:49:16.299Z,14.60
2023-04-18T10:51:45.207Z,14.04
2023-04-18T10:54:17.713Z,13.67
2023-04-18T10:56:52.541Z,14.28
2023-04-18T10:59:22.862Z,14.61
2023-04-18T11:01:56.133Z,15.25
2023-04-18T11:04:24.261Z,14.85
2023-04-18T12:25:07.993Z,14.78
2023-04-18T12:27:47.577Z,14.53
2023-04-18T12:30:14.595Z,14.99
2023-04-18T12:32:41.360Z,15.07
2023-04-18T12:35:09.160Z,14.66
2023-04-18T12:37:36.227Z,14.98
2023-04-18T12:40:06.249Z,15.22
2023-04-18T12:42:33.110Z,14.04
2023-04-18T12:45:00.317Z,14.33
2023-04-18T12:47:27.293Z,13.63
2023-04-18T12:49:54.110Z,13.42
2023-04-18T12:52:20.885Z,13.58
2023-04-18T12:54:47.672Z,13.97
2023-04-18T12:57:16.399Z,13.73
2023-04-18T12:59:43.087Z,13.46
2023-04-18T13:02:10.141Z,13.53
2023-04-18T13:04:37.397Z,13.83
2023-04-18T13:07:04.214Z,14.00
2023-04-18T13:09:31.110Z,14.12
2023-04-18T13:11:57.935Z,14.44
2023-04-18T13:14:26.449Z,14.28
2023-04-18T13:16:53.478Z,14.03
2023-04-18T13:19:20.320Z,14.15
2023-04-18T13:21:49.122Z,14.47
2023-04-18T13:24:16.502Z,14.01
2023-04-18T13:26:43.356Z,13.99
2023-04-18T13:29:10.208Z,14.26
2023-04-18T13:31:38.407Z,14.37
2023-04-18T13:34:05.295Z,14.49
2023-04-18T13:36:32.017Z,14.33
2023-04-18T13:38:59.188Z,14.23
2023-04-18T13:41:25.939Z,14.48
2023-04-18T13:43:52.708Z,14.47
2023-04-18T13:46:19.618Z,14.55
2023-04-18T13:48:47.884Z,14.88
2023-04-18T13:51:14.825Z,15.13
2023-04-18T13:53:41.631Z,14.99
2023-04-18T13:56:08.303Z,14.87
2023-04-18T13:58:35.182Z,14.56
2023-04-18T14:01:04.463Z,14.72
2023-04-18T14:03:31.448Z,14.45
2023-04-18T14:05:59.710Z,14.70
2023-04-18T14:08:26.933Z,14.48
2023-04-18T14:10:53.652Z,14.43
2023-04-18T14:13:20.399Z,14.42
2023-04-18T14:15:47.223Z,14.67
2023-04-18T14:18:13.857Z,14.60
2023-04-18T14:20:40.633Z,14.57
2023-04-18T14:23:08.858Z,14.49
2023-04-18T14:25:35.734Z,14.42
2023-04-18T14:28:07.089Z,14.48
2023-04-18T14:30:33.854Z,14.24
2023-04-18T14:33:01.072Z,13.91
2023-04-18T14:35:28.056Z,14.02
2023-04-18T14:37:54.803Z,14.44
2023-04-18T14:40:24.123Z,14.34
2023-04-18T14:42:50.915Z,14.36
2023-04-18T14:45:18.298Z,14.47
2023-04-18T14:47:45.113Z,14.64
2023-04-18T14:50:12.302Z,14.46
2023-04-18T14:52:39.837Z,14.43
2023-04-18T14:55:07.863Z,14.13
2023-04-18T14:57:37.031Z,14.48
2023-04-18T15:00:04.097Z,14.36
2023-04-18T15:02:31.230Z,14.20
2023-04-18T15:04:58.765Z,14.08
2023-04-18T15:07:25.572Z,14.29
2023-04-18T15:09:52.659Z,14.40
2023-04-18T15:12:19.388Z,14.36
2023-04-18T15:14:47.527Z,14.59
2023-04-18T15:17:14.294Z,14.50
2023-04-18T15:19:41.196Z,14.45
2023-04-18T15:22:07.882Z,14.06
2023-04-18T15:24:34.644Z,14.05
2023-04-18T15:27:01.313Z,14.01
2023-04-18T15:29:28.027Z,14.19
2023-04-18T15:31:56.701Z,14.41
2023-04-18T15:34:23.761Z,14.15
2023-04-18T15:36:50.687Z,14.28
2023-04-18T15:39:17.436Z,14.33
2023-04-18T15:41:44.133Z,14.39
2023-04-18T15:44:11.189Z,14.47
2023-04-18T15:46:38.240Z,14.85
2023-04-18T15:49:06.891Z,14.90
2023-04-18T15:51:33.590Z,14.34
2023-04-18T15:54:00.661Z,13.80
2023-04-18T15:56:27.586Z,13.58
2023-04-18T15:58:57.747Z,13.73
2023-04-18T16:01:24.570Z,13.66
2023-04-18T16:03:51.487Z,13.60
2023-04-18T16:06:19.663Z,13.69
2023-04-18T16:08:46.401Z,13.58
2023-04-18T16:11:13.147Z,13.57
2023-04-18T16:13:39.871Z,13.62
2023-04-18T16:16:07.282Z,13.72
2023-04-18T16:18:33.983Z,13.55
2023-04-18T16:21:01.922Z,13.29
2023-04-18T16:23:31.184Z,13.32
2023-04-18T16:25:58.002Z,13.24
2023-04-18T16:28:24.809Z,13.24
2023-04-18T16:30:53.581Z,13.23
2023-04-18T16:33:22.403Z,13.26
2023-04-18T16:35:49.323Z,13.19
2023-04-18T16:38:16.039Z,13.14
2023-04-18T16:40:44.117Z,13.32
2023-04-18T16:43:10.893Z,13.31
2023-04-18T16:45:37.544Z,13.41
2023-04-18T16:48:06.461Z,13.51
2023-04-18T16:50:33.390Z,13.51
2023-04-18T16:53:00.394Z,13.61
2023-04-18T16:55:27.176Z,13.65
2023-04-18T16:57:55.410Z,13.40
2023-04-18T17:00:22.688Z,13.20
2023-04-18T17:02:49.569Z,13.13
2023-04-18T17:05:16.617Z,13.06
2023-04-18T17:07:44.481Z,12.74
2023-04-18T17:10:11.825Z,12.63
2023-04-18T17:12:38.669Z,12.67
2023-04-18T17:15:08.303Z,12.66
2023-04-18T17:17:35.068Z,12.56
2023-04-18T17:20:01.952Z,12.59
2023-04-18T17:22:28.900Z,12.81
2023-04-18T17:24:55.676Z,12.76
2023-04-18T17:27:22.588Z,12.47
2023-04-18T17:29:49.500Z,12.19
2023-04-18T17:32:18.247Z,12.08
2023-04-18T17:34:46.741Z,11.99
2023-04-18T17:37:14.363Z,11.90
2023-04-18T17:39:41.457Z,11.83
2023-04-18T17:42:09.101Z,11.81
2023-04-18T17:44:36.362Z,11.74
2023-04-18T17:47:03.073Z,11.73
2023-04-18T17:49:31.099Z,11.70
2023-04-18T17:51:57.817Z,11.62
2023-04-18T17:54:24.731Z,11.57
2023-04-18T17:56:51.632Z,11.50
2023-04-18T17:59:18.724Z,11.46
2023-04-18T18:01:45.774Z,11.38
2023-04-18T18:04:13.204Z,11.29
2023-04-18T18:06:41.638Z,11.23
2023-04-18T18:09:08.345Z,11.18
2023-04-18T18:11:35.435Z,11.10
2023-04-18T18:14:02.319Z,11.12
2023-04-18T18:16:29.054Z,11.09
2023-04-18T18:18:55.813Z,11.06
2023-04-18T18:21:22.551Z,10.98
2023-04-18T18:23:50.603Z,10.93
2023-04-18T18:26:17.358Z,10.85
2023-04-18T18:28:44.108Z,10.81
2023-04-18T18:31:10.913Z,10.71
2023-04-18T18:33:37.677Z,10.67
2023-04-18T18:36:04.923Z,10.56
2023-04-18T18:38:31.705Z,10.59
2023-04-18T18:41:01.754Z,10.59
2023-04-18T18:43:30.391Z,10.57
2023-04-18T18:45:57.421Z,10.48
2023-04-18T18:48:24.567Z,10.40
2023-04-18T18:50:51.342Z,10.35
2023-04-18T18:53:19.369Z,10.35
2023-04-18T18:55:46.115Z,10.32
2023-04-18T18:58:14.290Z,10.24
2023-04-18T19:00:41.049Z,10.15
2023-04-18T19:03:08.240Z,10.12
2023-04-18T19:05:35.213Z,10.13
2023-04-18T19:08:01.991Z,10.10
2023-04-18T19:10:29.455Z,10.05
2023-04-18T19:12:56.129Z,10.02
2023-04-18T19:15:24.779Z,10.06
2023-04-18T19:17:51.556Z,10.08
2023-04-18T19:20:18.436Z,10.01
2023-04-18T19:22:45.225Z,10.01
2023-04-18T19:25:14.961Z,9.96
2023-04-18T19:27:42.997Z,9.94
2023-04-18T19:30:10.222Z,9.87
2023-04-18T19:32:38.373Z,9.85
2023-04-18T19:35:05.866Z,9.80
2023-04-18T19:37:32.695Z,9.74
2023-04-18T19:39:59.457Z,9.69
2023-04-18T19:42:26.632Z,9.65
2023-04-18T19:44:53.339Z,9.62
2023-04-18T19:47:20.256Z,9.55
2023-04-18T19:49:51.382Z,9.51
2023-04-18T19:52:18.111Z,9.46
2023-04-18T19:54:45.013Z,9.43
2023-04-18T19:57:11.746Z,9.41
2023-04-18T19:59:38.888Z,9.37
2023-04-18T20:02:06.695Z,9.36
2023-04-18T20:04:33.840Z,9.39
2023-04-18T20:07:02.518Z,9.34
2023-04-18T20:09:29.277Z,9.33
2023-04-18T20:11:56.228Z,9.35
2023-04-18T20:14:22.940Z,9.35
2023-04-18T20:16:49.702Z,9.28
2023-04-18T20:19:16.750Z,9.27
2023-04-18T20:21:43.663Z,9.27
2023-04-18T20:24:11.765Z,9.27
2023-04-18T20:26:38.539Z,9.23
2023-04-18T20:29:05.258Z,9.20
2023-04-18T20:31:32.162Z,9.15
2023-04-18T20:33:58.904Z,9.12
2023-04-18T20:36:25.675Z,9.19
2023-04-18T20:38:52.471Z,9.11
2023-04-18T20:41:23.240Z,9.09
2023-04-18T20:43:50.365Z,9.06
2023-04-18T20:46:18.679Z,9.15
2023-04-18T20:48:46.492Z,9.13
2023-04-18T20:51:18.666Z,9.09
2023-04-18T20:53:45.914Z,9.08
2023-04-18T20:56:13.811Z,9.00
2023-04-18T20:58:43.745Z,9.00
2023-04-18T21:01:10.524Z,8.99
2023-04-18T21:03:37.639Z,8.97
2023-04-18T21:06:04.568Z,9.01
2023-04-18T21:08:31.617Z,8.97
2023-04-18T21:10:58.356Z,8.96
2023-04-18T21:13:25.173Z,8.96
2023-04-18T21:15:53.364Z,8.94
2023-04-18T21:18:20.467Z,8.98
2023-04-18T21:20:47.198Z,8.98
2023-04-18T21:23:13.882Z,8.92
2023-04-18T21:25:40.643Z,8.97
2023-04-18T21:28:07.357Z,8.96
2023-04-18T21:30:34.050Z,8.92
2023-04-18T21:33:02.311Z,8.86
2023-04-18T21:35:29.278Z,8.83
2023-04-18T21:37:55.997Z,8.82
2023-04-18T21:40:22.803Z,8.81
2023-04-18T21:42:49.973Z,8.79
2023-04-18T21:45:17.224Z,8.76
2023-04-18T21:47:44.284Z,8.82
2023-04-18T21:50:12.946Z,8.77
2023-04-18T21:52:39.863Z,8.74
2023-04-18T21:55:07.039Z,8.80
2023-04-18T21:57:33.773Z,8.82
2023-04-18T22:00:00.584Z,8.73
2023-04-18T22:02:28.054Z,8.66
2023-04-18T22:04:55.047Z,8.73
2023-04-18T22:07:24.213Z,8.80
2023-04-18T22:09:51.050Z,8.87
2023-04-18T22:12:17.829Z,8.79
2023-04-18T22:14:44.693Z,8.77
2023-04-18T22:17:11.529Z,8.69
2023-04-18T22:19:38.321Z,8.67
2023-04-18T22:22:05.233Z,8.63
2023-04-18T22:24:34.496Z,8.66
2023-04-18T22:27:01.653Z,8.64
2023-04-18T22:29:28.494Z,8.61
2023-04-18T22:31:55.260Z,8.67
2023-04-18T22:34:22.011Z,8.72
2023-04-18T22:36:48.886Z,8.76
2023-04-18T22:39:16.921Z,8.79
2023-04-18T22:41:45.082Z,8.80
2023-04-18T22:44:12.133Z,8.78
2023-04-18T22:46:39.448Z,8.79
2023-04-18T22:49:06.248Z,8.70
2023-04-18T22:51:33.054Z,8.66
2023-04-18T22:54:01.252Z,8.68
2023-04-18T22:56:28.013Z,8.64
2023-04-18T22:59:00.627Z,8.73
2023-04-18T23:01:28.739Z,8.77
2023-04-18T23:03:55.859Z,8.73
2023-04-18T23:06:23.198Z,8.71
2023-04-18T23:08:49.984Z,8.68
2023-04-18T23:11:17.125Z,8.61
2023-04-18T23:13:43.882Z,8.69
2023-04-18T23:16:12.187Z,8.70
2023-04-18T23:18:38.997Z,8.64
2023-04-18T23:21:06.369Z,8.65
2023-04-18T23:23:33.255Z,8.66
2023-04-18T23:26:00.078Z,8.62
2023-04-18T23:28:27.202Z,8.65
2023-04-18T23:30:53.952Z,8.65
2023-04-18T23:33:24.926Z,8.78
2023-04-18T23:35:52.702Z,8.82
2023-04-18T23:38:19.470Z,8.82
2023-04-18T23:40:46.264Z,8.82
2023-04-18T23:43:13.170Z,8.82
2023-04-18T23:45:39.942Z,8.81
2023-04-18T23:48:06.796Z,8.80
2023-04-18T23:50:36.341Z,8.85
2023-04-18T23:53:03.374Z,8.79
2023-04-18T23:55:30.184Z,8.88
2023-04-18T23:57:57.354Z,8.85
